createdAt,value
2018-06-15T00:02:19.702Z,22.50
2018-06-15T00:04:50.586Z,22.00
2018-06-15T00:07:25.244Z,22.25
2018-06-15T00:09:58.932Z,22.25
2018-06-15T00:12:29.178Z,20.75
2018-06-15T00:15:04.170Z,23.00
2018-06-15T00:20:21.203Z,25.00
2018-06-15T00:22:53.357Z,25.75
2018-06-15T00:25:25.429Z,22.00
2018-06-15T00:27:58.293Z,22.25
2018-06-15T00:30:28.646Z,23.25
2018-06-15T00:33:02.734Z,20.50
2018-06-15T00:35:38.194Z,22.00
2018-06-15T00:38:12.702Z,22.00
2018-06-15T00:40:44.190Z,23.25
2018-06-15T00:43:14.824Z,26.50
2018-06-15T00:45:46.318Z,26.25
2018-06-15T00:48:17.713Z,23.00
2018-06-15T00:50:48.577Z,22.50
2018-06-15T00:53:20.550Z,19.00
2018-06-15T00:55:54.141Z,25.00
2018-06-15T00:58:25.049Z,24.50
2018-06-15T01:00:55.821Z,25.00
2018-06-15T01:03:29.670Z,25.25
2018-06-15T01:06:00.440Z,23.00
2018-06-15T01:08:32.482Z,24.00
2018-06-15T01:11:03.591Z,21.50
2018-06-15T01:13:33.978Z,24.50
2018-06-15T01:16:19.586Z,26.75
2018-06-15T01:18:50.291Z,24.25
2018-06-15T01:21:21.691Z,24.75
2018-06-15T01:23:52.394Z,22.50
2018-06-15T01:26:24.165Z,23.25
2018-06-15T01:28:54.479Z,28.50
2018-06-15T01:31:25.005Z,24.00
2018-06-15T01:33:57.863Z,22.50
2018-06-15T01:36:29.263Z,25.50
2018-06-15T01:45:08.799Z,24.00
2018-06-15T01:47:41.575Z,27.00
2018-06-15T01:50:12.795Z,22.00
2018-06-15T01:52:43.123Z,22.50
2018-06-15T01:55:14.781Z,22.00
2018-06-15T01:57:46.154Z,28.00
2018-06-15T02:00:19.883Z,27.25
2018-06-15T02:02:52.529Z,23.00
2018-06-15T02:09:02.604Z,24.75
2018-06-15T02:11:38.356Z,28.25
2018-06-15T02:14:10.689Z,27.75
2018-06-15T02:16:53.096Z,24.75
2018-06-15T02:22:36.613Z,21.50
2018-06-15T02:25:08.274Z,28.00
2018-06-15T02:27:38.961Z,23.00
2018-06-15T02:30:10.445Z,20.75
2018-06-15T02:32:44.475Z,27.25
2018-06-15T02:35:16.046Z,22.25
2018-06-15T02:37:47.091Z,25.75
2018-06-15T02:40:18.809Z,22.00
2018-06-15T02:42:49.159Z,24.50
2018-06-15T02:45:21.941Z,25.00
2018-06-15T02:47:52.354Z,24.75
2018-06-15T02:50:25.598Z,26.75
2018-06-15T02:52:56.154Z,27.50
2018-06-15T02:55:27.375Z,25.75
2018-06-15T02:58:03.431Z,27.75
2018-06-15T03:00:34.742Z,32.75
2018-06-15T03:06:11.225Z,28.75
2018-06-15T03:08:47.271Z,33.50
2018-06-15T03:11:19.609Z,31.75
2018-06-15T03:13:53.289Z,36.00
2018-06-15T03:16:29.250Z,32.75
2018-06-15T03:19:04.264Z,30.25
2018-06-15T03:21:35.470Z,33.75
2018-06-15T03:24:06.438Z,31.75
2018-06-15T03:26:39.891Z,33.50
2018-06-15T03:29:13.393Z,27.00
2018-06-15T03:31:45.066Z,32.50
2018-06-15T03:34:27.699Z,31.25
2018-06-15T03:37:00.928Z,32.50
2018-06-15T03:39:31.988Z,32.50
2018-06-15T03:42:02.644Z,29.00
2018-06-15T03:44:38.326Z,29.75
2018-06-15T03:50:25.184Z,32.25
2018-06-15T03:52:56.291Z,34.00
2018-06-15T03:55:27.620Z,28.25
2018-06-15T03:57:58.240Z,31.75
2018-06-15T04:00:30.451Z,30.50
2018-06-15T04:03:02.456Z,34.25
2018-06-15T04:05:33.228Z,31.50
2018-06-15T04:08:03.923Z,32.50
2018-06-15T04:10:35.768Z,33.50
2018-06-15T04:13:07.228Z,32.50
2018-06-15T04:15:39.654Z,29.50
2018-06-15T04:18:18.660Z,29.75
2018-06-15T04:20:51.416Z,35.50
2018-06-15T04:23:21.845Z,37.50
2018-06-15T04:25:53.712Z,38.50
2018-06-15T04:28:26.004Z,39.00
2018-06-15T04:30:57.730Z,38.25
2018-06-15T04:33:30.657Z,37.50
2018-06-15T04:36:02.732Z,39.25
2018-06-15T04:38:35.276Z,36.00
2018-06-15T04:41:09.682Z,35.75
2018-06-15T04:43:40.571Z,36.00
2018-06-15T04:46:12.072Z,37.75
2018-06-15T04:48:45.518Z,36.25
2018-06-15T04:51:16.530Z,36.00
2018-06-15T04:53:56.061Z,38.25
2018-06-15T04:56:31.596Z,37.25
2018-06-15T04:59:07.760Z,36.75
2018-06-15T05:01:40.499Z,39.50
2018-06-15T05:04:11.126Z,36.50
2018-06-15T05:06:42.188Z,38.75
2018-06-15T05:09:15.144Z,33.75
2018-06-15T05:11:45.578Z,36.25
2018-06-15T05:14:16.866Z,43.25
2018-06-15T05:16:47.308Z,44.25
2018-06-15T05:19:18.510Z,49.50
2018-06-15T05:21:48.926Z,45.00
2018-06-15T05:24:19.353Z,36.50
2018-06-15T05:26:49.738Z,40.50
2018-06-15T05:29:22.315Z,43.00
2018-06-15T05:31:55.024Z,41.75
2018-06-15T05:34:25.462Z,38.75
2018-06-15T05:36:56.223Z,35.50
2018-06-15T05:39:28.030Z,41.75
2018-06-15T05:41:58.398Z,33.00
2018-06-15T05:44:31.119Z,33.75
2018-06-15T05:47:02.387Z,33.50
2018-06-15T05:49:33.008Z,33.00
2018-06-15T05:52:14.823Z,33.50
2018-06-15T05:54:49.495Z,34.25
2018-06-15T05:57:20.728Z,36.75
2018-06-15T05:59:54.424Z,36.00
2018-06-15T06:02:25.813Z,35.25
2018-06-15T06:04:58.197Z,36.75
2018-06-15T06:10:06.976Z,36.50
2018-06-15T06:12:37.803Z,39.25
2018-06-15T06:15:19.211Z,35.00
2018-06-15T06:17:51.623Z,37.00
2018-06-15T06:20:23.552Z,36.50
2018-06-15T06:22:59.497Z,37.00
2018-06-15T06:25:31.287Z,34.75
2018-06-15T06:28:07.597Z,33.00
2018-06-15T06:30:40.322Z,36.75
2018-06-15T06:33:10.748Z,37.25
2018-06-15T06:35:43.123Z,35.50
2018-06-15T06:38:14.739Z,35.25
2018-06-15T06:40:50.178Z,34.00
2018-06-15T06:43:27.300Z,34.75
2018-06-15T06:45:58.439Z,31.25
2018-06-15T06:48:30.267Z,35.25
2018-06-15T06:51:04.450Z,31.75
2018-06-15T06:53:36.438Z,36.25
2018-06-15T06:56:12.709Z,34.50
2018-06-15T06:58:48.965Z,36.50
2018-06-15T07:01:23.110Z,36.50
2018-06-15T07:03:56.893Z,34.25
2018-06-15T07:06:34.959Z,32.00
2018-06-15T07:09:08.182Z,34.50
2018-06-15T07:11:43.619Z,31.00
2018-06-15T07:14:17.483Z,31.00
2018-06-15T07:16:49.091Z,31.50
2018-06-15T07:19:20.867Z,34.00
2018-06-15T07:21:58.381Z,32.75
2018-06-15T07:24:31.663Z,32.00
2018-06-15T07:27:04.120Z,33.50
2018-06-15T07:29:36.434Z,32.00
2018-06-15T07:32:07.784Z,30.25
2018-06-15T07:34:42.579Z,30.50
2018-06-15T07:37:18.275Z,32.75
2018-06-15T07:39:52.432Z,31.50
2018-06-15T07:42:28.306Z,30.25
2018-06-15T07:44:59.308Z,31.50
2018-06-15T07:47:31.281Z,30.00
2018-06-15T07:50:04.108Z,31.00
2018-06-15T07:52:35.672Z,30.00
2018-06-15T07:55:08.496Z,28.25
2018-06-15T07:57:43.717Z,27.50
2018-06-15T08:00:25.062Z,30.75
2018-06-15T08:02:58.575Z,31.75
2018-06-15T08:08:11.701Z,32.00
2018-06-15T08:10:52.300Z,32.25
2018-06-15T08:13:24.548Z,31.50
2018-06-15T08:15:55.811Z,31.75
2018-06-15T08:18:29.641Z,30.00
2018-06-15T08:21:01.314Z,28.00
2018-06-15T08:23:34.491Z,27.25
2018-06-15T08:26:05.604Z,26.00
2018-06-15T08:28:38.517Z,25.00
2018-06-15T08:31:10.311Z,22.50
2018-06-15T08:33:44.447Z,21.25
2018-06-15T08:36:16.224Z,38.75
2018-06-15T08:38:46.746Z,17.50
2018-06-15T08:41:18.477Z,16.25
2018-06-15T08:43:49.006Z,15.00
2018-06-15T08:46:30.445Z,12.50
2018-06-15T08:49:03.516Z,13.75
2018-06-15T08:51:37.701Z,19.50
2018-06-15T08:56:48.815Z,11.75
2018-06-15T08:59:20.103Z,12.00
2018-06-15T09:01:52.563Z,12.00
2018-06-15T09:04:22.932Z,16.50
2018-06-15T09:06:54.180Z,21.75
2018-06-15T09:09:26.153Z,20.00
2018-06-15T09:11:56.457Z,15.25
2018-06-15T09:14:34.359Z,14.00
2018-06-15T09:17:05.593Z,18.50
2018-06-15T09:19:38.837Z,16.00
2018-06-15T09:22:10.994Z,14.00
2018-06-15T09:24:42.114Z,12.00
2018-06-15T09:27:13.387Z,12.00
2018-06-15T09:29:45.035Z,14.00
2018-06-15T09:32:20.639Z,16.25
2018-06-15T09:34:55.177Z,14.00
2018-06-15T09:37:29.285Z,15.25
2018-06-15T09:40:10.293Z,16.50
2018-06-15T09:42:56.069Z,14.75
2018-06-15T09:45:35.381Z,12.75
2018-06-15T09:48:16.403Z,12.25
2018-06-15T09:50:57.459Z,14.75
2018-06-15T09:53:33.467Z,13.00
2018-06-15T09:56:22.177Z,11.25
2018-06-15T09:59:01.214Z,14.00
2018-06-15T10:01:34.112Z,14.00
2018-06-15T10:04:09.406Z,16.75
2018-06-15T10:06:53.625Z,13.25
2018-06-15T10:09:26.371Z,16.25
2018-06-15T10:11:57.800Z,15.50
2018-06-15T10:14:33.321Z,16.25
2018-06-15T10:17:07.298Z,17.75
2018-06-15T10:19:40.190Z,15.00
2018-06-15T10:22:13.602Z,15.00
2018-06-15T10:24:47.201Z,18.00
2018-06-15T10:27:20.065Z,15.00
2018-06-15T10:29:53.209Z,16.25
2018-06-15T10:32:30.282Z,17.50
2018-06-15T10:35:04.116Z,18.75
2018-06-15T10:37:44.557Z,16.00
2018-06-15T10:40:15.752Z,19.00
2018-06-15T10:42:47.048Z,18.75
2018-06-15T10:45:20.847Z,17.50
2018-06-15T10:50:40.013Z,16.50
2018-06-15T10:53:12.325Z,19.00
2018-06-15T10:55:43.575Z,18.25
2018-06-15T10:58:14.134Z,18.00
2018-06-15T11:00:48.911Z,18.50
2018-06-15T11:03:19.708Z,21.25
2018-06-15T11:05:51.953Z,17.75
2018-06-15T11:08:22.315Z,20.75
2018-06-15T11:10:52.585Z,17.00
2018-06-15T11:13:23.425Z,18.50
2018-06-15T11:15:59.132Z,19.50
2018-06-15T11:18:32.303Z,16.25
2018-06-15T11:21:04.666Z,17.75
2018-06-15T11:26:22.934Z,14.50
2018-06-15T11:28:54.019Z,15.75
2018-06-15T11:31:30.122Z,14.25
2018-06-15T11:34:04.320Z,13.25
2018-06-15T11:36:37.329Z,13.50
2018-06-15T11:39:11.623Z,13.75
2018-06-15T11:41:43.657Z,14.50
2018-06-15T11:44:15.299Z,15.75
2018-06-15T11:46:54.100Z,14.50
2018-06-15T11:49:31.767Z,13.75
2018-06-15T11:52:07.039Z,13.50
2018-06-15T11:54:37.813Z,12.75
2018-06-15T11:57:11.669Z,13.25
2018-06-15T11:59:42.553Z,13.50
2018-06-15T12:02:21.170Z,13.00
2018-06-15T12:04:55.570Z,12.50
2018-06-15T12:07:33.569Z,11.25
2018-06-15T12:10:07.874Z,12.25
2018-06-15T12:12:39.695Z,13.00
2018-06-15T12:15:16.123Z,13.00
2018-06-15T12:17:46.851Z,11.00
2018-06-15T12:20:18.536Z,12.00
2018-06-15T12:22:50.679Z,13.00
2018-06-15T12:25:23.550Z,11.00
2018-06-15T12:27:56.004Z,11.50
2018-06-15T12:30:26.774Z,11.25
2018-06-15T12:33:00.994Z,13.25
2018-06-15T12:35:34.410Z,12.50
2018-06-15T12:38:07.683Z,13.25
2018-06-15T12:40:38.733Z,12.00
2018-06-15T12:43:11.605Z,11.00
2018-06-15T12:45:46.704Z,13.00
2018-06-15T12:48:25.671Z,13.00
2018-06-15T12:53:34.582Z,10.75
2018-06-15T12:56:10.551Z,11.00
2018-06-15T12:58:41.263Z,12.00
2018-06-15T13:01:16.478Z,10.75
2018-06-15T13:03:46.835Z,10.00
2018-06-15T13:06:21.333Z,13.00
2018-06-15T13:08:54.480Z,11.00
2018-06-15T13:11:25.887Z,11.00
2018-06-15T13:13:58.598Z,11.00
2018-06-15T13:16:30.006Z,9.50
2018-06-15T13:19:06.347Z,11.50
2018-06-15T13:21:37.508Z,9.75
2018-06-15T13:24:16.287Z,10.25
2018-06-15T13:26:46.901Z,10.50
2018-06-15T13:29:19.387Z,11.00
2018-06-15T13:31:54.171Z,11.00
2018-06-15T13:34:31.017Z,10.75
2018-06-15T13:37:03.453Z,11.00
2018-06-15T13:39:34.015Z,11.00
2018-06-15T13:42:06.364Z,11.75
2018-06-15T13:44:37.170Z,10.00
2018-06-15T13:47:07.907Z,10.00
2018-06-15T13:49:41.386Z,11.50
2018-06-15T13:52:13.825Z,10.00
2018-06-15T13:54:45.579Z,8.75
2018-06-15T13:57:18.934Z,11.00
2018-06-15T13:59:56.100Z,10.50
2018-06-15T14:02:36.093Z,9.00
2018-06-15T14:05:09.569Z,11.00
2018-06-15T14:07:41.544Z,11.00
2018-06-15T14:10:13.443Z,12.00
2018-06-15T14:12:46.620Z,8.50
2018-06-15T14:15:18.308Z,9.00
2018-06-15T14:17:50.317Z,9.25
2018-06-15T14:20:20.921Z,8.00
2018-06-15T14:22:54.294Z,10.00
2018-06-15T14:25:28.447Z,9.00
2018-06-15T14:30:40.454Z,8.00
2018-06-15T14:33:15.005Z,8.00
2018-06-15T14:35:53.187Z,10.00
2018-06-15T14:38:27.387Z,11.00
2018-06-15T14:40:58.574Z,11.75
2018-06-15T14:43:30.703Z,9.00
2018-06-15T14:46:03.678Z,10.00
2018-06-15T14:48:39.506Z,11.00
2018-06-15T14:51:12.155Z,10.00
2018-06-15T14:53:47.759Z,9.00
2018-06-15T14:56:23.358Z,11.00
2018-06-15T14:58:56.236Z,9.25
2018-06-15T15:01:33.123Z,8.75
2018-06-15T15:04:06.050Z,8.00
2018-06-15T15:06:41.561Z,7.25
2018-06-15T15:09:18.902Z,8.25
2018-06-15T15:12:03.248Z,9.00
2018-06-15T15:14:36.442Z,10.00
2018-06-15T15:17:15.783Z,11.00
2018-06-15T15:19:49.946Z,10.00
2018-06-15T15:22:31.759Z,7.75
2018-06-15T15:25:05.743Z,7.00
2018-06-15T15:27:46.940Z,8.50
2018-06-15T15:30:23.579Z,7.00
2018-06-15T15:32:59.630Z,6.50
2018-06-15T15:35:34.617Z,8.25
2018-06-15T15:38:07.685Z,8.00
2018-06-15T15:40:43.557Z,9.00
2018-06-15T15:43:14.249Z,8.75
2018-06-15T15:45:49.306Z,11.50
2018-06-15T15:48:19.831Z,8.00
2018-06-15T15:50:50.586Z,7.00
2018-06-15T15:53:28.256Z,7.00
2018-06-15T15:56:08.514Z,6.75
2018-06-15T15:58:50.578Z,6.00
2018-06-15T16:01:27.076Z,7.00
2018-06-15T16:04:01.771Z,6.00
2018-06-15T16:06:35.290Z,6.00
2018-06-15T16:09:13.418Z,5.50
2018-06-15T16:11:46.859Z,5.00
2018-06-15T16:14:18.809Z,5.50
2018-06-15T16:16:50.874Z,4.50
2018-06-15T16:19:32.768Z,6.00
2018-06-15T16:22:06.427Z,6.75
2018-06-15T16:24:40.690Z,8.50
2018-06-15T16:27:12.083Z,5.50
2018-06-15T16:29:48.527Z,8.00
2018-06-15T16:32:23.808Z,6.00
2018-06-15T16:34:58.766Z,5.00
2018-06-15T16:37:32.234Z,7.00
2018-06-15T16:43:03.607Z,6.75
2018-06-15T16:45:55.719Z,5.75
2018-06-15T16:48:37.958Z,6.00
2018-06-15T16:51:11.754Z,7.25
2018-06-15T16:53:50.509Z,10.50
2018-06-15T16:56:27.757Z,6.00
2018-06-15T16:59:14.502Z,7.00
2018-06-15T17:01:47.304Z,6.00
2018-06-15T17:04:21.617Z,6.00
2018-06-15T17:06:58.526Z,8.00
2018-06-15T17:09:32.223Z,7.00
2018-06-15T17:12:07.177Z,7.25
2018-06-15T17:14:41.049Z,8.00
2018-06-15T17:17:15.431Z,6.75
2018-06-15T17:19:54.299Z,6.00
2018-06-15T17:22:29.662Z,6.75
2018-06-15T17:25:04.076Z,8.75
2018-06-15T17:27:36.576Z,6.50
2018-06-15T17:30:17.453Z,7.75
2018-06-15T17:32:50.535Z,7.00
2018-06-15T17:35:21.535Z,6.00
2018-06-15T17:37:56.351Z,6.25
2018-06-15T17:40:29.394Z,8.75
2018-06-15T17:43:07.412Z,6.00
2018-06-15T17:45:39.299Z,6.00
2018-06-15T17:48:12.472Z,6.00
2018-06-15T17:50:47.261Z,6.75
2018-06-15T17:53:31.648Z,8.75
2018-06-15T17:56:19.650Z,11.25
2018-06-15T17:59:15.491Z,9.00
2018-06-15T18:01:56.830Z,9.00
2018-06-15T18:05:20.357Z,9.50
2018-06-15T18:08:22.374Z,9.25
2018-06-15T18:10:59.927Z,9.00
2018-06-15T18:16:20.763Z,11.25
2018-06-15T18:19:11.448Z,9.00
2018-06-15T18:21:55.584Z,9.75
2018-06-15T18:25:00.293Z,7.75
2018-06-15T18:27:41.490Z,8.75
2018-06-15T18:30:21.797Z,11.25
2018-06-15T18:32:55.559Z,13.00
2018-06-15T18:35:30.824Z,13.75
2018-06-15T18:38:29.229Z,11.25
2018-06-15T18:41:18.885Z,10.25
2018-06-15T18:43:53.771Z,10.75
2018-06-15T18:46:29.931Z,10.00
2018-06-15T18:49:03.144Z,8.75
2018-06-15T18:51:35.002Z,9.00
2018-06-15T18:54:25.152Z,9.75
2018-06-15T18:57:04.861Z,8.75
2018-06-15T18:59:38.228Z,8.00
2018-06-15T19:02:18.262Z,8.00
2018-06-15T19:04:59.546Z,8.75
2018-06-15T19:07:34.525Z,8.50
2018-06-15T19:10:06.337Z,8.75
2018-06-15T19:12:39.947Z,9.50
2018-06-15T19:15:13.848Z,8.75
2018-06-15T19:17:46.003Z,8.75
2018-06-15T19:20:21.067Z,13.75
2018-06-15T19:23:00.387Z,10.75
2018-06-15T19:25:35.923Z,12.50
2018-06-15T19:28:15.686Z,9.75
2018-06-15T19:30:50.085Z,10.00
2018-06-15T19:33:28.084Z,10.75
2018-06-15T19:36:05.174Z,8.00
2018-06-15T19:38:44.001Z,9.25
2018-06-15T19:41:18.517Z,8.75
2018-06-15T19:44:00.245Z,8.25
2018-06-15T19:46:34.677Z,9.50
2018-06-15T19:49:13.744Z,8.00
2018-06-15T19:52:06.313Z,9.50
2018-06-15T19:54:38.753Z,9.50
2018-06-15T19:57:19.920Z,8.25
2018-06-15T20:00:38.932Z,9.25
2018-06-15T20:03:13.039Z,8.75
2018-06-15T20:05:47.293Z,9.50
2018-06-15T20:08:28.701Z,9.50
2018-06-15T20:11:21.486Z,10.75
2018-06-15T20:13:56.059Z,9.00
2018-06-15T20:16:32.100Z,11.25
2018-06-15T20:19:14.054Z,11.50
2018-06-15T20:21:51.825Z,9.75
2018-06-15T20:24:24.838Z,9.50
2018-06-15T20:27:00.291Z,10.00
2018-06-15T20:29:35.107Z,9.50
2018-06-15T20:32:06.699Z,11.50
2018-06-15T20:34:44.518Z,11.75
2018-06-15T20:37:22.799Z,14.75
2018-06-15T20:40:24.330Z,17.50
2018-06-15T20:43:10.409Z,21.50
2018-06-15T20:45:43.489Z,23.00
2018-06-15T20:48:15.937Z,23.00
2018-06-15T20:50:54.413Z,25.50
2018-06-15T20:53:31.318Z,28.00
2018-06-15T20:59:08.329Z,24.00
2018-06-15T21:02:01.358Z,23.00
2018-06-15T21:04:42.464Z,18.00
2018-06-15T21:07:20.502Z,17.50
2018-06-15T21:09:56.840Z,16.00
2018-06-15T21:12:32.281Z,17.00
2018-06-15T21:17:52.234Z,15.00
2018-06-15T21:20:25.622Z,14.00
2018-06-15T21:23:07.378Z,12.25
2018-06-15T21:25:43.801Z,13.75
2018-06-15T21:28:20.977Z,14.00
2018-06-15T21:30:54.134Z,12.00
2018-06-15T21:33:42.199Z,15.50
2018-06-15T21:36:17.264Z,12.75
2018-06-15T21:38:57.845Z,13.50
2018-06-15T21:41:34.256Z,14.00
2018-06-15T21:44:08.815Z,13.50
2018-06-15T21:46:43.184Z,11.00
2018-06-15T21:49:17.541Z,13.25
2018-06-15T21:51:51.286Z,13.50
2018-06-15T21:54:26.766Z,12.00
2018-06-15T21:57:00.787Z,13.25
2018-06-15T21:59:35.041Z,11.25
2018-06-15T22:02:07.322Z,13.25
2018-06-15T22:04:54.058Z,12.75
2018-06-15T22:07:30.033Z,11.00
2018-06-15T22:10:05.859Z,14.75
2018-06-15T22:12:47.066Z,11.75
2018-06-15T22:15:19.300Z,13.75
2018-06-15T22:17:52.580Z,13.00
2018-06-15T22:20:24.243Z,14.00
2018-06-15T22:22:55.027Z,14.00
2018-06-15T22:25:26.741Z,12.75
2018-06-15T22:28:15.630Z,13.50
2018-06-15T22:30:49.594Z,13.00
2018-06-15T22:33:25.159Z,11.50
2018-06-15T22:35:59.208Z,12.00
2018-06-15T22:38:35.371Z,13.00
2018-06-15T22:41:11.696Z,13.25
2018-06-15T22:43:44.612Z,13.00
2018-06-15T22:46:17.483Z,13.25
2018-06-15T22:48:49.689Z,13.00
2018-06-15T22:51:23.723Z,12.75
2018-06-15T22:53:54.341Z,14.75
2018-06-15T22:56:34.636Z,14.00
2018-06-15T22:59:17.799Z,15.00
2018-06-15T23:01:49.590Z,13.00
2018-06-15T23:04:27.171Z,12.00
2018-06-15T23:07:09.868Z,13.00
2018-06-15T23:09:44.627Z,15.50
2018-06-15T23:12:17.516Z,13.25
2018-06-15T23:18:10.371Z,14.50
2018-06-15T23:20:43.187Z,15.75
2018-06-15T23:23:17.627Z,12.00
2018-06-15T23:28:39.711Z,15.00
2018-06-15T23:31:11.895Z,13.75
2018-06-15T23:33:50.010Z,14.00
2018-06-15T23:36:23.564Z,13.25
2018-06-15T23:38:58.526Z,14.75
2018-06-15T23:41:29.370Z,15.50
2018-06-15T23:44:02.232Z,13.75
2018-06-15T23:46:32.902Z,12.75
2018-06-15T23:49:13.741Z,13.75
2018-06-15T23:51:44.221Z,15.50
2018-06-15T23:54:16.491Z,17.25
2018-06-15T23:56:49.053Z,15.00
2018-06-15T23:59:22.619Z,16.00
